sensor_id;sensor_type;location;lat;lon;timestamp;P1;durP1;ratioP1;P2;durP2;ratioP2
18407;SDS011;9330;52.210;21.174;2022-12-20T00:00:06;42.47;;;23.05;;
18407;SDS011;9330;52.210;21.174;2022-12-20T00:02:34;43.10;;;24.40;;
18407;SDS011;9330;52.210;21.174;2022-12-20T00:05:01;46.13;;;24.25;;
18407;SDS011;9330;52.210;21.174;2022-12-20T00:07:28;45.42;;;24.13;;
18407;SDS011;9330;52.210;21.174;2022-12-20T00:09:55;42.20;;;23.38;;
18407;SDS011;9330;52.210;21.174;2022-12-20T00:12:22;42.28;;;23.88;;
18407;SDS011;9330;52.210;21.174;2022-12-20T00:14:49;42.28;;;23.27;;
18407;SDS011;9330;52.210;21.174;2022-12-20T00:17:18;41.28;;;22.60;;
18407;SDS011;9330;52.210;21.174;2022-12-20T00:19:44;41.92;;;23.48;;
18407;SDS011;9330;52.210;21.174;2022-12-20T00:22:12;44.05;;;23.13;;
18407;SDS011;9330;52.210;21.174;2022-12-20T00:24:39;42.40;;;23.45;;
18407;SDS011;9330;52.210;21.174;2022-12-20T00:27:06;44.65;;;23.75;;
18407;SDS011;9330;52.210;21.174;2022-12-20T00:29:33;42.72;;;24.05;;
18407;SDS011;9330;52.210;21.174;2022-12-20T00:32:00;42.58;;;24.63;;
18407;SDS011;9330;52.210;21.174;2022-12-20T00:34:29;44.95;;;23.83;;
18407;SDS011;9330;52.210;21.174;2022-12-20T00:36:56;43.30;;;23.10;;
18407;SDS011;9330;52.210;21.174;2022-12-20T00:39:23;42.15;;;24.98;;
18407;SDS011;9330;52.210;21.174;2022-12-20T00:41:50;39.17;;;23.83;;
18407;SDS011;9330;52.210;21.174;2022-12-20T00:44:17;40.28;;;23.10;;
18407;SDS011;9330;52.210;21.174;2022-12-20T00:46:44;46.67;;;24.85;;
18407;SDS011;9330;52.210;21.174;2022-12-20T00:49:11;42.85;;;24.80;;
18407;SDS011;9330;52.210;21.174;2022-12-20T00:51:41;41.50;;;23.60;;
18407;SDS011;9330;52.210;21.174;2022-12-20T00:54:08;41.55;;;24.35;;
18407;SDS011;9330;52.210;21.174;2022-12-20T00:56:35;46.20;;;25.05;;
18407;SDS011;9330;52.210;21.174;2022-12-20T00:59:02;39.78;;;23.90;;
18407;SDS011;9330;52.210;21.174;2022-12-20T01:01:30;45.38;;;24.58;;
18407;SDS011;9330;52.210;21.174;2022-12-20T01:03:58;45.80;;;24.58;;
18407;SDS011;9330;52.210;21.174;2022-12-20T01:06:26;42.40;;;23.83;;
18407;SDS011;9330;52.210;21.174;2022-12-20T01:08:56;42.47;;;25.67;;
18407;SDS011;9330;52.210;21.174;2022-12-20T01:11:24;41.72;;;24.20;;
18407;SDS011;9330;52.210;21.174;2022-12-20T01:13:53;41.60;;;23.65;;
18407;SDS011;9330;52.210;21.174;2022-12-20T01:16:21;42.65;;;24.75;;
18407;SDS011;9330;52.210;21.174;2022-12-20T01:18:50;41.33;;;23.80;;
18407;SDS011;9330;52.210;21.174;2022-12-20T01:21:19;43.65;;;24.70;;
18407;SDS011;9330;52.210;21.174;2022-12-20T01:23:47;44.35;;;24.25;;
18407;SDS011;9330;52.210;21.174;2022-12-20T01:26:17;43.40;;;24.65;;
18407;SDS011;9330;52.210;21.174;2022-12-20T01:28:46;41.65;;;23.83;;
18407;SDS011;9330;52.210;21.174;2022-12-20T01:31:14;43.63;;;24.30;;
18407;SDS011;9330;52.210;21.174;2022-12-20T01:33:43;42.08;;;24.33;;
18407;SDS011;9330;52.210;21.174;2022-12-20T01:36:13;40.42;;;23.60;;
18407;SDS011;9330;52.210;21.174;2022-12-20T01:38:42;44.17;;;24.73;;
18407;SDS011;9330;52.210;21.174;2022-12-20T01:41:10;43.33;;;25.15;;
18407;SDS011;9330;52.210;21.174;2022-12-20T01:43:48;41.83;;;24.15;;
18407;SDS011;9330;52.210;21.174;2022-12-20T01:46:17;41.15;;;24.02;;
18407;SDS011;9330;52.210;21.174;2022-12-20T01:48:46;43.22;;;24.90;;
18407;SDS011;9330;52.210;21.174;2022-12-20T01:51:18;47.10;;;28.02;;
18407;SDS011;9330;52.210;21.174;2022-12-20T01:53:46;44.20;;;25.13;;
18407;SDS011;9330;52.210;21.174;2022-12-20T01:56:16;42.75;;;25.95;;
18407;SDS011;9330;52.210;21.174;2022-12-20T01:58:43;40.67;;;24.42;;
18407;SDS011;9330;52.210;21.174;2022-12-20T02:01:14;46.58;;;26.35;;
18407;SDS011;9330;52.210;21.174;2022-12-20T02:03:41;40.45;;;24.55;;
18407;SDS011;9330;52.210;21.174;2022-12-20T02:06:14;41.67;;;24.65;;
18407;SDS011;9330;52.210;21.174;2022-12-20T02:08:43;40.83;;;23.23;;
18407;SDS011;9330;52.210;21.174;2022-12-20T02:11:16;43.40;;;25.00;;
18407;SDS011;9330;52.210;21.174;2022-12-20T02:14:02;46.85;;;25.40;;
18407;SDS011;9330;52.210;21.174;2022-12-20T02:16:38;40.38;;;22.90;;
18407;SDS011;9330;52.210;21.174;2022-12-20T02:19:14;42.22;;;26.17;;
18407;SDS011;9330;52.210;21.174;2022-12-20T02:21:54;38.58;;;22.60;;
18407;SDS011;9330;52.210;21.174;2022-12-20T02:24:45;41.95;;;24.10;;
18407;SDS011;9330;52.210;21.174;2022-12-20T02:27:25;40.17;;;23.92;;
18407;SDS011;9330;52.210;21.174;2022-12-20T02:30:10;40.55;;;23.52;;
18407;SDS011;9330;52.210;21.174;2022-12-20T02:32:47;40.03;;;22.58;;
18407;SDS011;9330;52.210;21.174;2022-12-20T02:35:21;35.78;;;21.60;;
18407;SDS011;9330;52.210;21.174;2022-12-20T02:37:50;40.47;;;24.33;;
18407;SDS011;9330;52.210;21.174;2022-12-20T02:40:20;36.60;;;21.63;;
18407;SDS011;9330;52.210;21.174;2022-12-20T02:42:50;40.28;;;22.00;;
18407;SDS011;9330;52.210;21.174;2022-12-20T02:45:23;35.60;;;22.00;;
18407;SDS011;9330;52.210;21.174;2022-12-20T02:47:52;39.05;;;23.80;;
18407;SDS011;9330;52.210;21.174;2022-12-20T02:50:25;39.97;;;23.25;;
18407;SDS011;9330;52.210;21.174;2022-12-20T02:52:55;37.75;;;22.73;;
18407;SDS011;9330;52.210;21.174;2022-12-20T02:55:23;36.28;;;21.63;;
18407;SDS011;9330;52.210;21.174;2022-12-20T02:57:59;45.50;;;26.13;;
18407;SDS011;9330;52.210;21.174;2022-12-20T03:00:35;38.75;;;21.45;;
18407;SDS011;9330;52.210;21.174;2022-12-20T03:03:05;38.45;;;21.65;;
18407;SDS011;9330;52.210;21.174;2022-12-20T03:05:48;37.08;;;22.90;;
18407;SDS011;9330;52.210;21.174;2022-12-20T03:08:17;38.63;;;22.50;;
18407;SDS011;9330;52.210;21.174;2022-12-20T03:10:45;35.38;;;21.23;;
18407;SDS011;9330;52.210;21.174;2022-12-20T03:13:12;38.10;;;22.77;;
18407;SDS011;9330;52.210;21.174;2022-12-20T03:15:41;41.70;;;23.90;;
18407;SDS011;9330;52.210;21.174;2022-12-20T03:18:08;35.30;;;20.67;;
18407;SDS011;9330;52.210;21.174;2022-12-20T03:20:35;38.13;;;21.40;;
18407;SDS011;9330;52.210;21.174;2022-12-20T03:23:02;40.28;;;23.00;;
18407;SDS011;9330;52.210;21.174;2022-12-20T03:25:29;34.38;;;20.48;;
18407;SDS011;9330;52.210;21.174;2022-12-20T03:27:56;36.03;;;22.08;;
18407;SDS011;9330;52.210;21.174;2022-12-20T03:30:23;36.67;;;21.80;;
18407;SDS011;9330;52.210;21.174;2022-12-20T03:32:51;29.92;;;19.38;;
18407;SDS011;9330;52.210;21.174;2022-12-20T03:35:18;32.67;;;19.60;;
18407;SDS011;9330;52.210;21.174;2022-12-20T03:37:45;32.10;;;19.40;;
18407;SDS011;9330;52.210;21.174;2022-12-20T03:40:12;29.73;;;18.73;;
18407;SDS011;9330;52.210;21.174;2022-12-20T03:42:40;33.58;;;19.85;;
18407;SDS011;9330;52.210;21.174;2022-12-20T03:45:07;32.85;;;19.98;;
18407;SDS011;9330;52.210;21.174;2022-12-20T03:47:35;32.70;;;18.83;;
18407;SDS011;9330;52.210;21.174;2022-12-20T03:50:04;31.50;;;19.73;;
18407;SDS011;9330;52.210;21.174;2022-12-20T03:52:32;28.85;;;18.38;;
18407;SDS011;9330;52.210;21.174;2022-12-20T03:54:59;31.52;;;19.52;;
18407;SDS011;9330;52.210;21.174;2022-12-20T03:57:27;31.42;;;19.45;;
18407;SDS011;9330;52.210;21.174;2022-12-20T03:59:54;29.80;;;18.75;;
18407;SDS011;9330;52.210;21.174;2022-12-20T04:02:21;34.17;;;19.77;;
18407;SDS011;9330;52.210;21.174;2022-12-20T04:04:48;32.92;;;20.42;;
18407;SDS011;9330;52.210;21.174;2022-12-20T04:07:17;30.13;;;18.58;;
18407;SDS011;9330;52.210;21.174;2022-12-20T04:09:44;32.33;;;19.05;;
18407;SDS011;9330;52.210;21.174;2022-12-20T04:12:11;39.90;;;23.02;;
18407;SDS011;9330;52.210;21.174;2022-12-20T04:14:38;30.35;;;18.40;;
18407;SDS011;9330;52.210;21.174;2022-12-20T04:17:05;32.80;;;20.05;;
18407;SDS011;9330;52.210;21.174;2022-12-20T04:19:32;34.00;;;20.45;;
18407;SDS011;9330;52.210;21.174;2022-12-20T04:21:59;33.35;;;19.50;;
18407;SDS011;9330;52.210;21.174;2022-12-20T04:24:28;37.97;;;21.70;;
18407;SDS011;9330;52.210;21.174;2022-12-20T04:26:54;42.35;;;25.27;;
18407;SDS011;9330;52.210;21.174;2022-12-20T04:29:22;34.88;;;21.50;;
18407;SDS011;9330;52.210;21.174;2022-12-20T04:31:49;37.80;;;22.42;;
18407;SDS011;9330;52.210;21.174;2022-12-20T04:34:16;34.53;;;20.73;;
18407;SDS011;9330;52.210;21.174;2022-12-20T04:36:43;34.17;;;20.40;;
18407;SDS011;9330;52.210;21.174;2022-12-20T04:39:10;35.67;;;20.45;;
18407;SDS011;9330;52.210;21.174;2022-12-20T04:41:38;29.60;;;18.50;;
18407;SDS011;9330;52.210;21.174;2022-12-20T04:44:05;38.25;;;21.67;;
18407;SDS011;9330;52.210;21.174;2022-12-20T04:46:32;39.22;;;21.55;;
18407;SDS011;9330;52.210;21.174;2022-12-20T04:48:59;33.78;;;20.58;;
18407;SDS011;9330;52.210;21.174;2022-12-20T04:51:26;28.42;;;19.08;;
18407;SDS011;9330;52.210;21.174;2022-12-20T04:53:53;31.20;;;18.45;;
18407;SDS011;9330;52.210;21.174;2022-12-20T04:56:21;31.17;;;19.95;;
18407;SDS011;9330;52.210;21.174;2022-12-20T04:58:51;32.03;;;19.70;;
18407;SDS011;9330;52.210;21.174;2022-12-20T05:01:19;28.75;;;18.08;;
18407;SDS011;9330;52.210;21.174;2022-12-20T05:03:47;28.02;;;18.92;;
18407;SDS011;9330;52.210;21.174;2022-12-20T05:06:14;30.38;;;18.55;;
18407;SDS011;9330;52.210;21.174;2022-12-20T05:08:41;33.00;;;20.00;;
18407;SDS011;9330;52.210;21.174;2022-12-20T05:11:08;31.83;;;19.38;;
18407;SDS011;9330;52.210;21.174;2022-12-20T05:13:35;37.03;;;21.48;;
18407;SDS011;9330;52.210;21.174;2022-12-20T05:16:04;30.90;;;17.55;;
18407;SDS011;9330;52.210;21.174;2022-12-20T05:18:31;29.52;;;18.70;;
18407;SDS011;9330;52.210;21.174;2022-12-20T05:20:59;32.85;;;19.73;;
18407;SDS011;9330;52.210;21.174;2022-12-20T05:23:44;33.08;;;20.35;;
18407;SDS011;9330;52.210;21.174;2022-12-20T05:26:29;34.28;;;19.30;;
18407;SDS011;9330;52.210;21.174;2022-12-20T05:28:58;35.88;;;21.67;;
18407;SDS011;9330;52.210;21.174;2022-12-20T05:31:27;34.97;;;20.02;;
18407;SDS011;9330;52.210;21.174;2022-12-20T05:33:54;31.77;;;18.80;;
18407;SDS011;9330;52.210;21.174;2022-12-20T05:36:21;31.50;;;19.48;;
18407;SDS011;9330;52.210;21.174;2022-12-20T05:38:48;32.67;;;19.92;;
18407;SDS011;9330;52.210;21.174;2022-12-20T05:41:15;29.77;;;18.20;;
18407;SDS011;9330;52.210;21.174;2022-12-20T05:43:42;29.02;;;18.05;;
18407;SDS011;9330;52.210;21.174;2022-12-20T05:46:09;30.80;;;19.73;;
18407;SDS011;9330;52.210;21.174;2022-12-20T05:48:37;28.08;;;18.13;;
18407;SDS011;9330;52.210;21.174;2022-12-20T05:51:04;29.92;;;18.65;;
18407;SDS011;9330;52.210;21.174;2022-12-20T05:53:31;28.38;;;18.52;;
18407;SDS011;9330;52.210;21.174;2022-12-20T05:55:58;29.50;;;18.23;;
18407;SDS011;9330;52.210;21.174;2022-12-20T05:58:26;30.42;;;18.75;;
18407;SDS011;9330;52.210;21.174;2022-12-20T06:00:53;28.35;;;17.88;;
18407;SDS011;9330;52.210;21.174;2022-12-20T06:03:21;28.65;;;17.77;;
18407;SDS011;9330;52.210;21.174;2022-12-20T06:05:50;27.35;;;17.88;;
18407;SDS011;9330;52.210;21.174;2022-12-20T06:08:16;30.75;;;17.42;;
18407;SDS011;9330;52.210;21.174;2022-12-20T06:10:46;27.35;;;17.98;;
18407;SDS011;9330;52.210;21.174;2022-12-20T06:13:14;27.50;;;17.05;;
18407;SDS011;9330;52.210;21.174;2022-12-20T06:15:41;28.30;;;16.95;;
18407;SDS011;9330;52.210;21.174;2022-12-20T06:18:08;28.33;;;16.80;;
18407;SDS011;9330;52.210;21.174;2022-12-20T06:20:35;28.85;;;18.27;;
18407;SDS011;9330;52.210;21.174;2022-12-20T06:23:05;29.05;;;17.65;;
18407;SDS011;9330;52.210;21.174;2022-12-20T06:25:33;28.17;;;17.17;;
18407;SDS011;9330;52.210;21.174;2022-12-20T06:28:01;31.20;;;20.35;;
18407;SDS011;9330;52.210;21.174;2022-12-20T06:30:27;29.15;;;17.88;;
18407;SDS011;9330;52.210;21.174;2022-12-20T06:32:54;28.88;;;17.17;;
18407;SDS011;9330;52.210;21.174;2022-12-20T06:35:21;26.67;;;16.55;;
18407;SDS011;9330;52.210;21.174;2022-12-20T06:37:48;27.48;;;16.67;;
18407;SDS011;9330;52.210;21.174;2022-12-20T06:40:19;26.85;;;16.38;;
18407;SDS011;9330;52.210;21.174;2022-12-20T06:42:46;30.55;;;18.85;;
18407;SDS011;9330;52.210;21.174;2022-12-20T06:45:14;28.98;;;17.85;;
18407;SDS011;9330;52.210;21.174;2022-12-20T06:47:41;28.73;;;17.23;;
18407;SDS011;9330;52.210;21.174;2022-12-20T06:50:08;31.17;;;19.42;;
18407;SDS011;9330;52.210;21.174;2022-12-20T06:52:35;28.95;;;16.88;;
18407;SDS011;9330;52.210;21.174;2022-12-20T06:55:03;26.40;;;17.42;;
18407;SDS011;9330;52.210;21.174;2022-12-20T06:57:31;25.30;;;15.95;;
18407;SDS011;9330;52.210;21.174;2022-12-20T06:59:58;27.38;;;16.35;;
18407;SDS011;9330;52.210;21.174;2022-12-20T07:02:25;26.88;;;16.17;;
18407;SDS011;9330;52.210;21.174;2022-12-20T07:04:52;25.40;;;15.88;;
18407;SDS011;9330;52.210;21.174;2022-12-20T07:07:20;28.15;;;18.08;;
18407;SDS011;9330;52.210;21.174;2022-12-20T07:09:46;24.92;;;15.95;;
18407;SDS011;9330;52.210;21.174;2022-12-20T07:12:13;27.77;;;16.88;;
18407;SDS011;9330;52.210;21.174;2022-12-20T07:14:42;26.60;;;15.65;;
18407;SDS011;9330;52.210;21.174;2022-12-20T07:17:09;26.55;;;16.70;;
18407;SDS011;9330;52.210;21.174;2022-12-20T07:19:36;28.42;;;17.15;;
18407;SDS011;9330;52.210;21.174;2022-12-20T07:22:03;24.70;;;16.23;;
18407;SDS011;9330;52.210;21.174;2022-12-20T07:24:31;27.02;;;16.50;;
18407;SDS011;9330;52.210;21.174;2022-12-20T07:26:57;24.08;;;15.48;;
18407;SDS011;9330;52.210;21.174;2022-12-20T07:29:25;25.05;;;16.10;;
18407;SDS011;9330;52.210;21.174;2022-12-20T07:31:53;30.70;;;16.77;;
18407;SDS011;9330;52.210;21.174;2022-12-20T07:34:20;26.13;;;15.57;;
18407;SDS011;9330;52.210;21.174;2022-12-20T07:36:47;25.02;;;15.38;;
18407;SDS011;9330;52.210;21.174;2022-12-20T07:39:14;24.48;;;15.85;;
18407;SDS011;9330;52.210;21.174;2022-12-20T07:41:43;24.13;;;15.27;;
18407;SDS011;9330;52.210;21.174;2022-12-20T07:44:10;25.40;;;16.00;;
18407;SDS011;9330;52.210;21.174;2022-12-20T07:46:37;24.80;;;16.17;;
18407;SDS011;9330;52.210;21.174;2022-12-20T07:49:05;26.75;;;15.48;;
18407;SDS011;9330;52.210;21.174;2022-12-20T07:51:33;23.27;;;15.52;;
18407;SDS011;9330;52.210;21.174;2022-12-20T07:54:03;24.75;;;15.85;;
18407;SDS011;9330;52.210;21.174;2022-12-20T07:56:33;29.40;;;16.60;;
18407;SDS011;9330;52.210;21.174;2022-12-20T07:59:03;25.10;;;15.63;;
18407;SDS011;9330;52.210;21.174;2022-12-20T08:01:31;26.48;;;15.70;;
18407;SDS011;9330;52.210;21.174;2022-12-20T08:03:59;25.45;;;15.88;;
18407;SDS011;9330;52.210;21.174;2022-12-20T08:06:30;23.52;;;14.65;;
18407;SDS011;9330;52.210;21.174;2022-12-20T08:08:59;24.15;;;15.27;;
18407;SDS011;9330;52.210;21.174;2022-12-20T08:11:30;24.63;;;15.45;;
18407;SDS011;9330;52.210;21.174;2022-12-20T08:13:59;24.67;;;15.38;;
18407;SDS011;9330;52.210;21.174;2022-12-20T08:16:27;30.65;;;16.80;;
18407;SDS011;9330;52.210;21.174;2022-12-20T08:18:55;26.98;;;16.83;;
18407;SDS011;9330;52.210;21.174;2022-12-20T08:21:22;24.30;;;16.45;;
18407;SDS011;9330;52.210;21.174;2022-12-20T08:23:50;25.27;;;16.02;;
18407;SDS011;9330;52.210;21.174;2022-12-20T08:26:17;25.25;;;15.88;;
18407;SDS011;9330;52.210;21.174;2022-12-20T08:28:44;26.75;;;16.27;;
18407;SDS011;9330;52.210;21.174;2022-12-20T08:31:11;26.38;;;16.08;;
18407;SDS011;9330;52.210;21.174;2022-12-20T08:33:39;25.75;;;15.88;;
18407;SDS011;9330;52.210;21.174;2022-12-20T08:36:08;27.98;;;16.70;;
18407;SDS011;9330;52.210;21.174;2022-12-20T08:38:38;28.33;;;16.02;;
18407;SDS011;9330;52.210;21.174;2022-12-20T08:41:07;24.83;;;16.42;;
18407;SDS011;9330;52.210;21.174;2022-12-20T08:43:35;26.02;;;17.27;;
18407;SDS011;9330;52.210;21.174;2022-12-20T08:46:03;25.10;;;16.42;;
18407;SDS011;9330;52.210;21.174;2022-12-20T08:48:32;27.52;;;16.70;;
18407;SDS011;9330;52.210;21.174;2022-12-20T08:50:59;25.65;;;16.60;;
18407;SDS011;9330;52.210;21.174;2022-12-20T08:53:30;29.77;;;16.90;;
18407;SDS011;9330;52.210;21.174;2022-12-20T08:56:02;26.30;;;16.13;;
18407;SDS011;9330;52.210;21.174;2022-12-20T08:58:31;27.15;;;15.77;;
18407;SDS011;9330;52.210;21.174;2022-12-20T09:00:58;24.33;;;14.93;;
18407;SDS011;9330;52.210;21.174;2022-12-20T09:03:28;23.25;;;15.35;;
18407;SDS011;9330;52.210;21.174;2022-12-20T09:05:55;24.25;;;15.88;;
18407;SDS011;9330;52.210;21.174;2022-12-20T09:08:23;23.58;;;15.40;;
18407;SDS011;9330;52.210;21.174;2022-12-20T09:10:50;24.17;;;14.63;;
18407;SDS011;9330;52.210;21.174;2022-12-20T09:13:17;25.05;;;16.05;;
18407;SDS011;9330;52.210;21.174;2022-12-20T09:15:47;25.63;;;16.02;;
18407;SDS011;9330;52.210;21.174;2022-12-20T09:18:14;24.45;;;16.08;;
18407;SDS011;9330;52.210;21.174;2022-12-20T09:20:42;25.90;;;16.52;;
18407;SDS011;9330;52.210;21.174;2022-12-20T09:23:09;24.02;;;15.63;;
18407;SDS011;9330;52.210;21.174;2022-12-20T09:25:37;25.52;;;16.58;;
18407;SDS011;9330;52.210;21.174;2022-12-20T09:28:04;27.98;;;17.45;;
18407;SDS011;9330;52.210;21.174;2022-12-20T09:30:31;26.48;;;17.17;;
18407;SDS011;9330;52.210;21.174;2022-12-20T09:32:59;25.60;;;16.90;;
18407;SDS011;9330;52.210;21.174;2022-12-20T09:35:26;24.85;;;16.90;;
18407;SDS011;9330;52.210;21.174;2022-12-20T09:37:54;26.77;;;17.48;;
18407;SDS011;9330;52.210;21.174;2022-12-20T09:40:22;25.63;;;15.13;;
18407;SDS011;9330;52.210;21.174;2022-12-20T09:42:52;25.77;;;17.10;;
18407;SDS011;9330;52.210;21.174;2022-12-20T09:45:21;25.58;;;15.80;;
18407;SDS011;9330;52.210;21.174;2022-12-20T09:47:51;26.52;;;16.60;;
18407;SDS011;9330;52.210;21.174;2022-12-20T09:50:20;27.42;;;16.27;;
18407;SDS011;9330;52.210;21.174;2022-12-20T09:53:02;0.00;;;0.00;;
18407;SDS011;9330;52.210;21.174;2022-12-20T09:55:40;26.75;;;16.85;;
18407;SDS011;9330;52.210;21.174;2022-12-20T09:58:23;25.13;;;16.27;;
18407;SDS011;9330;52.210;21.174;2022-12-20T10:00:56;26.02;;;16.38;;
18407;SDS011;9330;52.210;21.174;2022-12-20T10:03:24;27.48;;;17.30;;
18407;SDS011;9330;52.210;21.174;2022-12-20T10:05:57;26.60;;;16.30;;
18407;SDS011;9330;52.210;21.174;2022-12-20T10:08:36;23.63;;;15.73;;
18407;SDS011;9330;52.210;21.174;2022-12-20T10:11:08;27.98;;;18.52;;
18407;SDS011;9330;52.210;21.174;2022-12-20T10:13:47;27.75;;;17.70;;
18407;SDS011;9330;52.210;21.174;2022-12-20T10:16:27;25.67;;;16.08;;
18407;SDS011;9330;52.210;21.174;2022-12-20T10:19:05;26.88;;;17.02;;
18407;SDS011;9330;52.210;21.174;2022-12-20T10:21:43;24.88;;;16.10;;
18407;SDS011;9330;52.210;21.174;2022-12-20T10:24:18;29.17;;;17.83;;
18407;SDS011;9330;52.210;21.174;2022-12-20T10:26:55;26.65;;;17.38;;
18407;SDS011;9330;52.210;21.174;2022-12-20T10:29:24;28.10;;;17.85;;
18407;SDS011;9330;52.210;21.174;2022-12-20T10:31:51;29.45;;;17.55;;
18407;SDS011;9330;52.210;21.174;2022-12-20T10:34:21;28.10;;;17.33;;
18407;SDS011;9330;52.210;21.174;2022-12-20T10:36:50;31.27;;;18.27;;
18407;SDS011;9330;52.210;21.174;2022-12-20T10:39:42;24.17;;;16.13;;
18407;SDS011;9330;52.210;21.174;2022-12-20T10:42:25;28.25;;;17.90;;
18407;SDS011;9330;52.210;21.174;2022-12-20T10:45:01;29.20;;;19.25;;
18407;SDS011;9330;52.210;21.174;2022-12-20T10:47:35;28.20;;;18.92;;
18407;SDS011;9330;52.210;21.174;2022-12-20T10:50:12;26.45;;;17.20;;
18407;SDS011;9330;52.210;21.174;2022-12-20T10:52:43;26.38;;;17.73;;
18407;SDS011;9330;52.210;21.174;2022-12-20T10:58:00;27.88;;;17.42;;
18407;SDS011;9330;52.210;21.174;2022-12-20T11:00:29;25.42;;;17.33;;
18407;SDS011;9330;52.210;21.174;2022-12-20T11:03:10;30.23;;;18.65;;
18407;SDS011;9330;52.210;21.174;2022-12-20T11:05:40;28.55;;;17.55;;
18407;SDS011;9330;52.210;21.174;2022-12-20T11:08:19;28.73;;;17.90;;
18407;SDS011;9330;52.210;21.174;2022-12-20T11:10:48;28.40;;;18.15;;
18407;SDS011;9330;52.210;21.174;2022-12-20T11:13:20;26.60;;;17.45;;
18407;SDS011;9330;52.210;21.174;2022-12-20T11:15:51;28.15;;;18.00;;
18407;SDS011;9330;52.210;21.174;2022-12-20T11:18:23;31.30;;;19.50;;
18407;SDS011;9330;52.210;21.174;2022-12-20T11:20:56;32.90;;;18.55;;
18407;SDS011;9330;52.210;21.174;2022-12-20T11:23:32;29.42;;;18.75;;
18407;SDS011;9330;52.210;21.174;2022-12-20T11:26:14;29.38;;;19.13;;
18407;SDS011;9330;52.210;21.174;2022-12-20T11:28:56;28.15;;;17.60;;
18407;SDS011;9330;52.210;21.174;2022-12-20T11:31:38;29.80;;;17.98;;
18407;SDS011;9330;52.210;21.174;2022-12-20T11:34:18;32.42;;;20.35;;
18407;SDS011;9330;52.210;21.174;2022-12-20T11:36:58;28.77;;;18.02;;
18407;SDS011;9330;52.210;21.174;2022-12-20T11:39:37;29.77;;;18.50;;
18407;SDS011;9330;52.210;21.174;2022-12-20T11:42:12;30.10;;;19.63;;
18407;SDS011;9330;52.210;21.174;2022-12-20T11:44:50;31.30;;;19.17;;
18407;SDS011;9330;52.210;21.174;2022-12-20T11:50:15;30.48;;;19.70;;
18407;SDS011;9330;52.210;21.174;2022-12-20T11:52:57;31.00;;;19.48;;
18407;SDS011;9330;52.210;21.174;2022-12-20T11:55:30;27.75;;;18.70;;
18407;SDS011;9330;52.210;21.174;2022-12-20T11:58:00;28.67;;;19.13;;
18407;SDS011;9330;52.210;21.174;2022-12-20T12:00:31;32.67;;;19.25;;
18407;SDS011;9330;52.210;21.174;2022-12-20T12:03:02;28.50;;;18.30;;
18407;SDS011;9330;52.210;21.174;2022-12-20T12:05:39;29.40;;;20.13;;
18407;SDS011;9330;52.210;21.174;2022-12-20T12:08:10;28.90;;;19.17;;
18407;SDS011;9330;52.210;21.174;2022-12-20T12:10:54;29.77;;;18.75;;
18407;SDS011;9330;52.210;21.174;2022-12-20T12:13:25;30.25;;;19.23;;
18407;SDS011;9330;52.210;21.174;2022-12-20T12:15:55;30.95;;;19.60;;
18407;SDS011;9330;52.210;21.174;2022-12-20T12:18:27;30.73;;;19.33;;
18407;SDS011;9330;52.210;21.174;2022-12-20T12:20:56;30.52;;;20.00;;
18407;SDS011;9330;52.210;21.174;2022-12-20T12:23:29;28.73;;;17.98;;
18407;SDS011;9330;52.210;21.174;2022-12-20T12:26:08;31.60;;;20.10;;
18407;SDS011;9330;52.210;21.174;2022-12-20T12:28:38;29.20;;;18.75;;
18407;SDS011;9330;52.210;21.174;2022-12-20T12:31:06;30.58;;;20.02;;
18407;SDS011;9330;52.210;21.174;2022-12-20T12:33:39;30.48;;;19.45;;
18407;SDS011;9330;52.210;21.174;2022-12-20T12:36:15;29.70;;;18.55;;
18407;SDS011;9330;52.210;21.174;2022-12-20T12:42:13;28.55;;;18.52;;
18407;SDS011;9330;52.210;21.174;2022-12-20T12:44:53;30.02;;;19.38;;
18407;SDS011;9330;52.210;21.174;2022-12-20T12:47:23;31.40;;;19.55;;
18407;SDS011;9330;52.210;21.174;2022-12-20T12:50:00;29.65;;;19.17;;
18407;SDS011;9330;52.210;21.174;2022-12-20T12:52:34;33.13;;;20.63;;
18407;SDS011;9330;52.210;21.174;2022-12-20T13:01:08;35.97;;;21.08;;
18407;SDS011;9330;52.210;21.174;2022-12-20T13:03:43;35.10;;;20.17;;
18407;SDS011;9330;52.210;21.174;2022-12-20T13:09:37;32.83;;;19.75;;
18407;SDS011;9330;52.210;21.174;2022-12-20T13:18:38;32.47;;;21.23;;
18407;SDS011;9330;52.210;21.174;2022-12-20T13:21:35;33.20;;;21.52;;
18407;SDS011;9330;52.210;21.174;2022-12-20T13:27:20;31.95;;;20.70;;
18407;SDS011;9330;52.210;21.174;2022-12-20T13:39:31;31.65;;;20.77;;
18407;SDS011;9330;52.210;21.174;2022-12-20T13:42:13;31.48;;;21.20;;
18407;SDS011;9330;52.210;21.174;2022-12-20T13:44:47;34.30;;;21.90;;
18407;SDS011;9330;52.210;21.174;2022-12-20T13:47:28;33.95;;;21.00;;
18407;SDS011;9330;52.210;21.174;2022-12-20T13:50:17;31.58;;;21.55;;
18407;SDS011;9330;52.210;21.174;2022-12-20T13:52:59;31.85;;;20.17;;
18407;SDS011;9330;52.210;21.174;2022-12-20T13:55:36;30.38;;;19.63;;
18407;SDS011;9330;52.210;21.174;2022-12-20T13:58:09;36.47;;;21.83;;
18407;SDS011;9330;52.210;21.174;2022-12-20T14:00:41;34.50;;;22.23;;
18407;SDS011;9330;52.210;21.174;2022-12-20T14:03:14;32.72;;;22.02;;
18407;SDS011;9330;52.210;21.174;2022-12-20T14:05:47;33.25;;;21.55;;
18407;SDS011;9330;52.210;21.174;2022-12-20T14:08:15;37.08;;;22.90;;
18407;SDS011;9330;52.210;21.174;2022-12-20T14:10:46;34.70;;;21.02;;
18407;SDS011;9330;52.210;21.174;2022-12-20T14:13:18;34.40;;;21.38;;
18407;SDS011;9330;52.210;21.174;2022-12-20T14:15:47;32.22;;;21.88;;
18407;SDS011;9330;52.210;21.174;2022-12-20T14:18:15;33.63;;;21.65;;
18407;SDS011;9330;52.210;21.174;2022-12-20T14:20:45;33.47;;;20.88;;
18407;SDS011;9330;52.210;21.174;2022-12-20T14:23:15;33.47;;;21.70;;
18407;SDS011;9330;52.210;21.174;2022-12-20T14:25:45;41.75;;;24.17;;
18407;SDS011;9330;52.210;21.174;2022-12-20T14:28:18;39.35;;;24.40;;
18407;SDS011;9330;52.210;21.174;2022-12-20T14:30:54;41.33;;;26.00;;
18407;SDS011;9330;52.210;21.174;2022-12-20T14:33:29;39.60;;;24.05;;
18407;SDS011;9330;52.210;21.174;2022-12-20T14:36:06;37.42;;;23.98;;
18407;SDS011;9330;52.210;21.174;2022-12-20T14:38:43;36.53;;;22.63;;
18407;SDS011;9330;52.210;21.174;2022-12-20T14:44:02;35.97;;;23.08;;
18407;SDS011;9330;52.210;21.174;2022-12-20T14:46:38;36.92;;;23.02;;
18407;SDS011;9330;52.210;21.174;2022-12-20T14:49:14;38.67;;;24.63;;
18407;SDS011;9330;52.210;21.174;2022-12-20T14:51:46;35.67;;;23.27;;
18407;SDS011;9330;52.210;21.174;2022-12-20T14:54:15;32.60;;;21.60;;
18407;SDS011;9330;52.210;21.174;2022-12-20T14:56:46;35.40;;;23.00;;
18407;SDS011;9330;52.210;21.174;2022-12-20T14:59:16;33.30;;;22.15;;
18407;SDS011;9330;52.210;21.174;2022-12-20T15:01:49;34.97;;;23.30;;
18407;SDS011;9330;52.210;21.174;2022-12-20T15:04:23;35.45;;;22.35;;
18407;SDS011;9330;52.210;21.174;2022-12-20T15:06:56;33.50;;;21.40;;
18407;SDS011;9330;52.210;21.174;2022-12-20T15:09:23;34.85;;;21.85;;
18407;SDS011;9330;52.210;21.174;2022-12-20T15:11:52;34.28;;;22.52;;
18407;SDS011;9330;52.210;21.174;2022-12-20T15:14:27;37.65;;;23.00;;
18407;SDS011;9330;52.210;21.174;2022-12-20T15:16:59;38.80;;;23.58;;
18407;SDS011;9330;52.210;21.174;2022-12-20T15:19:26;36.05;;;22.42;;